Time;durP1;ratioP1;P1;durP2;ratioP2;P2;SDS_P1;SDS_P2;PMS_P1;PMS_P2;Temp;Humidity;BMP_temperature;BMP_pressure;BME280_temperature;BME280_humidity;BME280_pressure;Samples;Min_cycle;Max_cycle;Signal;HPM_P1;HPM_P2
2021/12/11 00:02:22;;;;;;;25.30;15.45;;;5.20;99.90;;;;;;5052885;28;20235;-73
2021/12/11 00:04:56;;;;;;;24.08;15.43;;;5.20;99.90;;;;;;5050820;28;20246;-72
2021/12/11 00:07:25;;;;;;;29.90;17.58;;;5.20;99.90;;;;;;5036175;28;20199;-71
2021/12/11 00:09:57;;;;;;;23.58;15.68;;;5.10;99.90;;;;;;5034266;28;20208;-71
2021/12/11 00:12:27;;;;;;;29.63;15.93;;;5.10;99.90;;;;;;5037219;28;20243;-72
2021/12/11 00:14:58;;;;;;;30.75;17.42;;;5.10;99.90;;;;;;5037133;28;20204;-73
2021/12/11 00:17:29;;;;;;;28.58;17.27;;;5.00;99.90;;;;;;5049427;28;20303;-74
2021/12/11 00:19:56;;;;;;;25.13;15.52;;;5.00;99.90;;;;;;5051288;28;20229;-72
2021/12/11 00:22:28;;;;;;;28.50;18.95;;;5.10;99.90;;;;;;5051990;28;20303;-73
2021/12/11 00:25:00;;;;;;;38.72;20.58;;;4.90;99.90;;;;;;5057984;28;20195;-73
2021/12/11 00:27:29;;;;;;;28.70;16.85;;;4.90;99.90;;;;;;5055257;28;20279;-72
2021/12/11 00:29:57;;;;;;;29.08;16.30;;;4.80;99.90;;;;;;5044790;28;20231;-72
2021/12/11 00:32:26;;;;;;;25.27;17.17;;;4.80;99.90;;;;;;5051693;28;20605;-72
2021/12/11 00:34:56;;;;;;;29.88;17.65;;;4.80;99.90;;;;;;5057668;28;20301;-73
2021/12/11 00:37:26;;;;;;;32.72;17.88;;;4.80;99.90;;;;;;5052767;28;20285;-72
2021/12/11 00:39:56;;;;;;;28.58;17.50;;;4.70;99.90;;;;;;5048175;28;20658;-71
2021/12/11 00:42:33;;;;;;;29.17;17.27;;;4.80;99.90;;;;;;5053827;28;20206;-70
2021/12/11 00:45:02;;;;;;;30.63;18.17;;;4.90;99.90;;;;;;5052127;28;20203;-71
2021/12/11 00:47:33;;;;;;;34.97;19.17;;;4.80;99.90;;;;;;5052330;28;20300;-70
2021/12/11 00:50:02;;;;;;;31.38;17.05;;;4.80;99.90;;;;;;5047017;28;20259;-71
2021/12/11 00:52:36;;;;;;;32.47;16.75;;;4.80;99.90;;;;;;5052074;28;20203;-73
2021/12/11 00:55:08;;;;;;;35.38;17.48;;;4.80;99.90;;;;;;5055946;28;20207;-71
2021/12/11 00:57:36;;;;;;;37.83;19.50;;;4.80;99.90;;;;;;5049495;28;20294;-72
2021/12/11 01:00:10;;;;;;;31.63;19.33;;;4.80;99.90;;;;;;5047936;28;20220;-72
2021/12/11 01:02:37;;;;;;;33.97;19.00;;;4.80;99.90;;;;;;5053812;28;20209;-71
2021/12/11 01:05:08;;;;;;;34.65;18.65;;;4.80;99.90;;;;;;5052527;28;20254;-72
2021/12/11 01:07:35;;;;;;;32.28;18.45;;;4.80;99.90;;;;;;5056780;28;20590;-71
2021/12/11 01:10:10;;;;;;;27.13;16.85;;;4.80;99.90;;;;;;5052732;28;20219;-71
2021/12/11 01:12:44;;;;;;;28.15;17.85;;;4.80;99.90;;;;;;5048800;28;20203;-72
2021/12/11 01:15:16;;;;;;;26.00;17.17;;;4.80;99.90;;;;;;5032149;28;20664;-72
2021/12/11 01:17:59;;;;;;;45.25;17.88;;;4.90;99.90;;;;;;5049223;28;20628;-72
2021/12/11 01:20:35;;;;;;;39.13;19.70;;;4.90;99.90;;;;;;5047099;28;20226;-71
2021/12/11 01:23:04;;;;;;;28.13;16.92;;;4.80;99.90;;;;;;5051337;28;20648;-71
2021/12/11 01:25:31;;;;;;;30.30;18.50;;;4.90;99.90;;;;;;5054831;28;20199;-71
2021/12/11 01:28:03;;;;;;;31.05;19.23;;;4.90;99.90;;;;;;5041909;28;20201;-73
2021/12/11 01:30:33;;;;;;;34.45;18.05;;;4.90;99.90;;;;;;5054762;28;20751;-72
2021/12/11 01:33:01;;;;;;;28.25;18.05;;;4.90;99.90;;;;;;5055254;28;20210;-73
2021/12/11 01:35:28;;;;;;;36.80;18.80;;;4.80;99.90;;;;;;5058980;28;20302;-72
2021/12/11 01:38:02;;;;;;;29.98;19.10;;;4.80;99.90;;;;;;5057199;28;20214;-73
2021/12/11 01:40:31;;;;;;;32.78;19.60;;;4.90;99.90;;;;;;5052753;28;20266;-72
2021/12/11 01:43:02;;;;;;;33.78;19.05;;;4.80;99.90;;;;;;5056557;28;20211;-73
2021/12/11 01:45:30;;;;;;;31.00;18.25;;;4.80;99.90;;;;;;5053194;28;20302;-72
2021/12/11 01:47:57;;;;;;;28.48;17.23;;;4.80;99.90;;;;;;5055835;28;20539;-73
2021/12/11 01:50:28;;;;;;;31.00;16.45;;;4.80;99.90;;;;;;5049296;28;20226;-71
2021/12/11 01:52:57;;;;;;;33.17;18.02;;;4.80;99.90;;;;;;5058762;28;20195;-72
2021/12/11 01:55:29;;;;;;;36.72;17.40;;;4.90;99.90;;;;;;5056542;28;20196;-73
2021/12/11 01:57:57;;;;;;;30.00;17.95;;;4.90;99.90;;;;;;5053697;28;20196;-71
2021/12/11 02:00:29;;;;;;;33.42;18.75;;;4.90;99.90;;;;;;5052733;28;20215;-72
2021/12/11 02:02:58;;;;;;;31.60;17.90;;;4.90;99.90;;;;;;5048995;28;20555;-72
2021/12/11 02:05:31;;;;;;;35.30;19.75;;;4.90;99.90;;;;;;5058359;28;20207;-71
2021/12/11 02:08:03;;;;;;;35.42;18.35;;;5.00;99.90;;;;;;5043903;28;20224;-73
2021/12/11 02:10:35;;;;;;;29.42;18.08;;;5.00;99.90;;;;;;5055244;28;20281;-72
2021/12/11 02:13:05;;;;;;;34.35;18.88;;;5.10;99.90;;;;;;5051312;28;20204;-72
2021/12/11 02:15:38;;;;;;;30.15;17.58;;;5.10;99.90;;;;;;5056092;28;20195;-72
2021/12/11 02:18:11;;;;;;;32.95;19.20;;;5.10;99.90;;;;;;5052762;28;20208;-72
2021/12/11 02:20:42;;;;;;;33.65;19.02;;;5.10;99.90;;;;;;5048853;28;20224;-72
2021/12/11 02:23:13;;;;;;;32.97;18.38;;;5.10;99.90;;;;;;5054081;28;20665;-72
2021/12/11 02:25:46;;;;;;;28.33;19.08;;;5.10;99.90;;;;;;5050241;28;20203;-71
2021/12/11 02:28:17;;;;;;;31.15;17.15;;;5.10;99.90;;;;;;5043153;28;20231;-73
2021/12/11 02:30:51;;;;;;;34.00;18.63;;;5.00;99.90;;;;;;5046390;28;20578;-72
2021/12/11 02:33:24;;;;;;;29.30;17.38;;;4.80;99.90;;;;;;5051969;28;20263;-72
2021/12/11 02:35:55;;;;;;;29.75;18.20;;;4.70;99.90;;;;;;5052053;28;20622;-71
2021/12/11 02:38:29;;;;;;;32.28;18.92;;;4.70;99.90;;;;;;5045432;28;20662;-71
2021/12/11 02:41:01;;;;;;;24.73;16.75;;;4.50;99.90;;;;;;5057080;28;20231;-72
2021/12/11 02:43:37;;;;;;;31.48;18.85;;;4.40;99.90;;;;;;5049666;28;20206;-71
2021/12/11 02:46:13;;;;;;;34.53;19.10;;;4.20;99.90;;;;;;5048560;28;20250;-73
2021/12/11 02:48:43;;;;;;;33.00;18.00;;;4.10;99.90;;;;;;5049624;28;20686;-72
2021/12/11 02:51:15;;;;;;;32.65;18.30;;;4.10;99.90;;;;;;5066618;28;20223;-71
2021/12/11 02:53:47;;;;;;;31.60;18.17;;;4.20;99.90;;;;;;5051125;28;20286;-72
2021/12/11 02:56:18;;;;;;;37.85;20.63;;;4.20;99.90;;;;;;5045904;28;20294;-72
2021/12/11 02:58:50;;;;;;;37.83;19.55;;;4.20;99.90;;;;;;5057199;28;20681;-72
2021/12/11 03:01:24;;;;;;;42.20;18.50;;;4.30;99.90;;;;;;5044299;28;20239;-71
2021/12/11 03:04:00;;;;;;;33.53;18.38;;;4.30;99.90;;;;;;5037272;28;20666;-72
2021/12/11 03:06:36;;;;;;;38.10;21.38;;;4.30;99.90;;;;;;5047071;28;20207;-71
2021/12/11 03:09:07;;;;;;;33.20;18.00;;;4.30;99.90;;;;;;5031179;28;20269;-72
2021/12/11 03:11:34;;;;;;;33.28;19.25;;;4.30;99.90;;;;;;5049120;28;20220;-72
2021/12/11 03:14:04;;;;;;;37.35;18.73;;;4.30;99.90;;;;;;5047921;28;20441;-71
2021/12/11 03:16:35;;;;;;;31.27;19.30;;;4.40;99.90;;;;;;5043458;28;20598;-71
2021/12/11 03:19:05;;;;;;;36.72;20.67;;;4.50;99.90;;;;;;5047040;28;20204;-72
2021/12/11 03:21:32;;;;;;;35.33;19.98;;;4.50;99.90;;;;;;5043633;28;20651;-71
2021/12/11 03:24:00;;;;;;;33.25;19.83;;;4.50;99.90;;;;;;5053680;28;20287;-72
2021/12/11 03:26:28;;;;;;;34.65;17.73;;;4.50;99.90;;;;;;5053397;28;20286;-71
2021/12/11 03:28:57;;;;;;;29.23;18.15;;;4.50;99.90;;;;;;5053696;28;20212;-71
2021/12/11 03:31:24;;;;;;;38.85;18.65;;;4.60;99.90;;;;;;5053641;28;20628;-73
2021/12/11 03:33:56;;;;;;;38.40;19.55;;;4.50;99.90;;;;;;5053250;28;20292;-72
2021/12/11 03:36:26;;;;;;;30.67;17.73;;;4.40;99.90;;;;;;5053321;28;20245;-72
2021/12/11 03:38:57;;;;;;;37.33;18.55;;;4.40;99.90;;;;;;5053385;28;20222;-73
2021/12/11 03:41:25;;;;;;;33.05;19.13;;;4.30;99.90;;;;;;5052178;28;20223;-72
2021/12/11 03:43:55;;;;;;;39.92;18.23;;;4.30;99.90;;;;;;5053248;28;20210;-72
2021/12/11 03:46:23;;;;;;;35.33;19.50;;;4.30;99.90;;;;;;5052396;28;20239;-72
2021/12/11 03:48:53;;;;;;;32.03;17.90;;;4.30;99.90;;;;;;5052641;28;20294;-72
2021/12/11 03:51:30;;;;;;;34.47;18.45;;;4.30;99.90;;;;;;5052851;28;20311;-72
2021/12/11 03:53:59;;;;;;;35.05;18.45;;;4.30;99.90;;;;;;5044973;28;20213;-73
2021/12/11 03:56:27;;;;;;;32.03;18.83;;;4.20;99.90;;;;;;5051316;28;20206;-72
2021/12/11 03:58:56;;;;;;;33.50;18.23;;;4.30;99.90;;;;;;5052537;28;20204;-71
2021/12/11 04:01:28;;;;;;;29.92;17.90;;;4.30;99.90;;;;;;5051770;28;20233;-72
2021/12/11 04:03:57;;;;;;;28.85;17.48;;;4.40;99.90;;;;;;5053067;28;20246;-72
2021/12/11 04:06:27;;;;;;;28.48;16.95;;;4.40;99.90;;;;;;5053020;28;20286;-72
2021/12/11 04:08:56;;;;;;;37.17;19.55;;;4.40;99.90;;;;;;5052411;28;20202;-72
2021/12/11 04:11:26;;;;;;;33.88;18.83;;;4.40;99.90;;;;;;5051685;28;20268;-71
2021/12/11 04:13:58;;;;;;;32.80;18.75;;;4.40;99.90;;;;;;5052782;28;20208;-73
2021/12/11 04:16:25;;;;;;;31.67;18.50;;;4.40;99.90;;;;;;5050990;28;20195;-72
2021/12/11 04:18:53;;;;;;;37.50;17.63;;;4.30;99.90;;;;;;5052599;28;20234;-73
2021/12/11 04:21:20;;;;;;;36.42;19.52;;;4.30;99.90;;;;;;5052024;28;20313;-73
2021/12/11 04:23:48;;;;;;;34.17;19.38;;;4.30;99.90;;;;;;5053034;28;20269;-72
2021/12/11 04:26:15;;;;;;;36.70;19.67;;;4.30;99.90;;;;;;5053131;28;20650;-73
2021/12/11 04:28:45;;;;;;;34.13;18.65;;;4.30;99.90;;;;;;5054912;28;20242;-71
2021/12/11 04:31:17;;;;;;;30.30;18.35;;;4.30;99.90;;;;;;5052422;28;20238;-73
2021/12/11 04:33:46;;;;;;;36.72;21.00;;;4.30;99.90;;;;;;5052527;28;20298;-72
2021/12/11 04:36:17;;;;;;;32.00;18.50;;;4.30;99.90;;;;;;5052672;28;20657;-72
2021/12/11 04:38:45;;;;;;;28.58;18.13;;;4.30;99.90;;;;;;5051607;28;20203;-72
2021/12/11 04:41:17;;;;;;;31.88;17.10;;;4.40;99.90;;;;;;5051547;28;20319;-72
2021/12/11 04:43:44;;;;;;;29.80;20.67;;;4.40;99.90;;;;;;5045068;28;20200;-72
2021/12/11 04:46:12;;;;;;;29.15;17.70;;;4.40;99.90;;;;;;5053315;28;20219;-71
2021/12/11 04:48:52;;;;;;;36.75;19.90;;;4.40;99.90;;;;;;5049705;28;20283;-72
2021/12/11 04:51:26;;;;;;;33.17;19.95;;;4.40;99.90;;;;;;5049222;28;20632;-73
2021/12/11 04:54:03;;;;;;;30.63;17.73;;;4.40;99.90;;;;;;5032997;28;20210;-73
2021/12/11 04:59:32;;;;;;;32.85;17.92;;;4.40;99.90;;;;;;5052539;28;20672;-71
2021/12/11 05:02:16;;;;;;;28.13;18.83;;;4.40;99.90;;;;;;5032619;28;20228;-72
2021/12/11 05:04:56;;;;;;;25.13;17.17;;;4.50;99.90;;;;;;5034679;28;20673;-72
2021/12/11 05:07:33;;;;;;;37.08;19.63;;;4.60;99.90;;;;;;5026047;28;20290;-72
2021/12/11 05:10:12;;;;;;;34.15;19.83;;;4.60;99.90;;;;;;5037444;28;20226;-72
2021/12/11 05:12:39;;;;;;;29.58;17.98;;;4.50;99.90;;;;;;5044022;28;20200;-73
2021/12/11 05:15:11;;;;;;;36.63;19.45;;;4.60;99.90;;;;;;5056185;28;20294;-72
2021/12/11 05:17:38;;;;;;;35.50;19.90;;;4.50;99.90;;;;;;5056047;28;20210;-72
2021/12/11 05:20:09;;;;;;;34.22;19.88;;;4.50;99.90;;;;;;5054956;28;20226;-71
2021/12/11 05:22:36;;;;;;;29.95;19.38;;;4.40;99.90;;;;;;5055771;28;20219;-72
2021/12/11 05:25:07;;;;;;;33.83;18.10;;;4.40;99.90;;;;;;5055888;28;20200;-72
2021/12/11 05:27:34;;;;;;;36.13;19.23;;;4.40;99.90;;;;;;5055815;28;20203;-72
2021/12/11 05:30:02;;;;;;;32.15;19.58;;;4.40;99.90;;;;;;5054801;28;20710;-72
2021/12/11 05:32:29;;;;;;;35.20;18.58;;;4.40;99.90;;;;;;5055922;28;20287;-72
2021/12/11 05:34:57;;;;;;;33.38;18.75;;;4.40;99.90;;;;;;5055810;28;20690;-71
2021/12/11 05:37:27;;;;;;;33.70;19.92;;;4.30;99.90;;;;;;5055707;28;20628;-72
2021/12/11 05:39:55;;;;;;;31.08;18.25;;;4.20;99.90;;;;;;5060665;28;20313;-72
2021/12/11 05:42:22;;;;;;;38.30;19.67;;;4.30;99.90;;;;;;5066014;28;20211;-72
2021/12/11 05:44:49;;;;;;;31.08;19.20;;;4.20;99.90;;;;;;5049283;28;20290;-72
2021/12/11 05:47:17;;;;;;;41.10;19.35;;;4.10;99.90;;;;;;5055467;28;20217;-71
2021/12/11 05:49:46;;;;;;;37.70;20.30;;;4.00;99.90;;;;;;5046989;28;20237;-72
2021/12/11 05:52:14;;;;;;;34.47;19.48;;;3.90;99.90;;;;;;5055205;28;20198;-72
2021/12/11 05:54:45;;;;;;;31.38;19.10;;;3.90;99.90;;;;;;5055614;28;20293;-74
2021/12/11 05:57:15;;;;;;;32.00;19.65;;;3.80;99.90;;;;;;5055386;28;20662;-72
2021/12/11 05:59:44;;;;;;;27.48;18.13;;;3.80;99.90;;;;;;5054661;28;20726;-72
2021/12/11 06:02:15;;;;;;;35.22;20.98;;;3.80;99.90;;;;;;5055396;28;20305;-74
2021/12/11 06:04:44;;;;;;;35.25;20.42;;;3.80;99.90;;;;;;5047703;28;20246;-71
2021/12/11 06:07:13;;;;;;;33.03;18.85;;;3.70;99.90;;;;;;5055436;28;20196;-73
2021/12/11 06:09:45;;;;;;;34.40;21.00;;;3.70;99.90;;;;;;5045147;28;20295;-71
2021/12/11 06:12:14;;;;;;;31.55;19.17;;;3.60;99.90;;;;;;5055519;28;20211;-72
2021/12/11 06:14:43;;;;;;;29.23;18.98;;;3.70;99.90;;;;;;5055250;28;20242;-72
2021/12/11 06:17:15;;;;;;;40.10;19.30;;;3.60;99.90;;;;;;5055405;28;20680;-73
2021/12/11 06:19:50;;;;;;;31.38;20.70;;;3.70;99.90;;;;;;5056754;28;20241;-72
2021/12/11 06:22:17;;;;;;;31.15;18.50;;;3.60;99.90;;;;;;5053034;28;20226;-72
2021/12/11 06:24:46;;;;;;;33.67;18.55;;;3.70;99.90;;;;;;5063585;28;20302;-72
2021/12/11 06:27:13;;;;;;;28.73;18.15;;;3.60;99.90;;;;;;5063472;28;20200;-73
2021/12/11 06:29:40;;;;;;;28.83;18.08;;;3.50;99.90;;;;;;5048832;28;20226;-72
2021/12/11 06:32:07;;;;;;;31.80;19.23;;;3.50;99.90;;;;;;5062007;28;20230;-72
2021/12/11 06:34:36;;;;;;;36.72;22.23;;;3.50;99.90;;;;;;5054708;28;20210;-71
2021/12/11 06:37:05;;;;;;;34.30;21.15;;;3.50;99.90;;;;;;5050574;28;20202;-72
2021/12/11 06:39:32;;;;;;;38.83;18.88;;;3.50;99.90;;;;;;5053522;28;20742;-71
2021/12/11 06:42:03;;;;;;;35.05;20.25;;;3.50;99.90;;;;;;5054519;28;20211;-72
2021/12/11 06:44:30;;;;;;;29.58;20.05;;;3.60;99.90;;;;;;5054251;28;20651;-71
2021/12/11 06:47:00;;;;;;;32.47;20.48;;;3.70;99.90;;;;;;5055121;28;20283;-71
2021/12/11 06:49:28;;;;;;;26.75;18.42;;;3.60;99.90;;;;;;5055381;28;20213;-71
2021/12/11 06:51:56;;;;;;;32.05;20.38;;;3.50;99.90;;;;;;5054351;28;20233;-71
2021/12/11 06:54:25;;;;;;;31.83;18.92;;;3.40;99.90;;;;;;5056565;28;20204;-72
2021/12/11 06:56:53;;;;;;;29.58;18.67;;;3.40;99.90;;;;;;5054817;28;20207;-71
2021/12/11 06:59:23;;;;;;;28.98;18.52;;;3.30;99.90;;;;;;5053779;28;20658;-71
2021/12/11 07:01:50;;;;;;;32.65;18.98;;;3.30;99.90;;;;;;5053383;28;20716;-72
2021/12/11 07:04:17;;;;;;;39.95;23.13;;;3.30;99.90;;;;;;5054132;28;20192;-71
2021/12/11 07:06:46;;;;;;;32.22;20.45;;;3.30;99.90;;;;;;5054072;28;20299;-70
2021/12/11 07:09:15;;;;;;;36.40;19.65;;;3.20;99.90;;;;;;5053978;28;20715;-72
2021/12/11 07:11:44;;;;;;;37.55;24.75;;;3.20;99.90;;;;;;5052696;28;20238;-70
2021/12/11 07:14:13;;;;;;;40.00;21.20;;;3.20;99.90;;;;;;5054548;28;20273;-71
2021/12/11 07:16:42;;;;;;;36.67;23.52;;;3.10;99.90;;;;;;5049024;28;20211;-72
2021/12/11 07:19:09;;;;;;;33.38;21.25;;;3.10;99.90;;;;;;5053708;28;20290;-72
2021/12/11 07:21:37;;;;;;;36.38;20.73;;;3.10;99.90;;;;;;5052440;28;20233;-71
2021/12/11 07:24:08;;;;;;;39.45;23.52;;;3.10;99.90;;;;;;5053964;28;20227;-72
2021/12/11 07:26:35;;;;;;;33.75;20.23;;;3.10;99.90;;;;;;5053798;28;20207;-72
2021/12/11 07:29:08;;;;;;;38.05;24.38;;;3.00;99.90;;;;;;5053399;28;20622;-72
2021/12/11 07:31:36;;;;;;;37.67;24.05;;;3.00;99.90;;;;;;5052795;28;20275;-72
2021/12/11 07:34:05;;;;;;;39.65;22.48;;;2.90;99.90;;;;;;5054037;28;20210;-72
2021/12/11 07:36:33;;;;;;;36.72;22.88;;;2.90;99.90;;;;;;5053290;28;20311;-73
2021/12/11 07:39:07;;;;;;;39.97;20.25;;;2.90;99.90;;;;;;5053556;28;20260;-72
2021/12/11 07:41:34;;;;;;;40.47;23.70;;;2.80;99.90;;;;;;5052552;28;20225;-71
2021/12/11 07:44:01;;;;;;;44.72;23.48;;;2.80;99.90;;;;;;5053173;28;20306;-71
2021/12/11 07:46:31;;;;;;;42.83;24.25;;;2.90;99.90;;;;;;5052782;28;20209;-73
2021/12/11 07:48:58;;;;;;;32.03;21.75;;;2.90;99.90;;;;;;5053555;28;20210;-71
2021/12/11 07:51:29;;;;;;;34.47;23.90;;;2.90;99.90;;;;;;5052512;28;20303;-71
2021/12/11 07:53:56;;;;;;;40.95;24.30;;;2.90;99.90;;;;;;5053155;28;20242;-72
2021/12/11 07:56:24;;;;;;;36.33;21.73;;;2.90;99.90;;;;;;5053310;28;20254;-71
2021/12/11 07:58:55;;;;;;;39.85;25.75;;;2.90;99.90;;;;;;5052630;28;20691;-72
2021/12/11 08:01:25;;;;;;;35.05;21.48;;;2.90;99.90;;;;;;5051945;28;20223;-72
2021/12/11 08:03:51;;;;;;;41.38;21.67;;;2.90;99.90;;;;;;5052889;28;20219;-72
2021/12/11 08:06:18;;;;;;;38.75;24.73;;;2.90;99.90;;;;;;5056225;28;20267;-72
2021/12/11 08:08:47;;;;;;;38.38;23.38;;;3.00;99.90;;;;;;5053799;28;20235;-70
2021/12/11 08:11:17;;;;;;;36.78;22.67;;;3.00;99.90;;;;;;5064222;28;20262;-71
2021/12/11 08:13:45;;;;;;;37.83;22.38;;;3.00;99.90;;;;;;5054499;28;20210;-72
2021/12/11 08:16:13;;;;;;;34.42;24.48;;;3.00;99.90;;;;;;5064937;28;20278;-72
2021/12/11 08:18:40;;;;;;;42.30;26.20;;;3.20;99.90;;;;;;5053046;28;20223;-72
2021/12/11 08:21:08;;;;;;;39.83;24.17;;;3.30;99.90;;;;;;5051874;28;20223;-72
2021/12/11 08:23:42;;;;;;;34.95;22.40;;;3.40;99.90;;;;;;5052329;28;20216;-71
2021/12/11 08:26:14;;;;;;;37.63;21.80;;;3.50;99.90;;;;;;5021473;28;20222;-72
2021/12/11 08:28:41;;;;;;;38.03;22.80;;;3.90;99.90;;;;;;5043728;28;20264;-71
2021/12/11 08:31:08;;;;;;;34.60;23.58;;;4.00;99.90;;;;;;5049911;28;20395;-72
2021/12/11 08:33:35;;;;;;;37.47;21.92;;;4.30;99.90;;;;;;5051725;28;20278;-71
2021/12/11 08:36:02;;;;;;;33.72;22.65;;;4.40;99.90;;;;;;5052846;28;20195;-72
2021/12/11 08:38:30;;;;;;;29.45;20.05;;;4.50;99.90;;;;;;5051743;28;20218;-72
2021/12/11 08:41:00;;;;;;;25.67;20.65;;;4.70;99.90;;;;;;5051627;28;20282;-73
2021/12/11 08:43:30;;;;;;;32.20;19.73;;;5.10;99.90;;;;;;5051927;28;20310;-74
2021/12/11 08:46:08;;;;;;;31.20;20.05;;;5.60;99.90;;;;;;5052910;28;20679;-72
2021/12/11 08:48:36;;;;;;;39.20;20.85;;;5.70;99.90;;;;;;5052364;28;20212;-73
2021/12/11 08:51:08;;;;;;;36.10;21.85;;;5.20;99.90;;;;;;5052186;28;20765;-72
2021/12/11 08:53:36;;;;;;;36.63;23.73;;;5.00;99.90;;;;;;5052907;28;20208;-73
2021/12/11 08:56:06;;;;;;;35.47;21.20;;;4.80;99.90;;;;;;5052807;28;20620;-73
2021/12/11 08:58:36;;;;;;;36.58;21.63;;;4.60;99.90;;;;;;5054321;28;20207;-73
2021/12/11 09:01:10;;;;;;;33.75;22.60;;;4.40;99.90;;;;;;5052161;28;20445;-72
2021/12/11 09:03:41;;;;;;;36.90;22.80;;;4.20;99.90;;;;;;5058364;28;20203;-71
2021/12/11 09:06:12;;;;;;;29.65;22.30;;;4.20;99.90;;;;;;5052327;28;20239;-74
2021/12/11 09:08:49;;;;;;;32.85;21.80;;;4.30;99.90;;;;;;5052204;28;20289;-72
2021/12/11 09:11:20;;;;;;;33.58;21.80;;;4.20;99.90;;;;;;5051995;28;20302;-73
2021/12/11 09:13:56;;;;;;;36.70;22.08;;;4.20;99.90;;;;;;5052241;28;20642;-75
2021/12/11 09:16:28;;;;;;;37.83;24.00;;;4.30;99.90;;;;;;5053296;28;20214;-75
2021/12/11 09:19:01;;;;;;;39.25;24.02;;;4.40;99.90;;;;;;5056549;28;20196;-73
2021/12/11 09:21:32;;;;;;;44.40;24.17;;;4.40;99.90;;;;;;5052388;28;20281;-72
2021/12/11 09:24:04;;;;;;;33.47;23.35;;;4.40;99.90;;;;;;5053299;28;20559;-75
2021/12/11 09:26:35;;;;;;;30.55;20.92;;;4.40;99.90;;;;;;5049337;28;20250;-73
2021/12/11 09:29:12;;;;;;;40.85;25.58;;;4.30;99.90;;;;;;5044667;28;20606;-74
2021/12/11 09:31:43;;;;;;;33.83;21.25;;;4.30;99.90;;;;;;5041001;28;20299;-71
2021/12/11 09:34:14;;;;;;;34.85;23.00;;;4.40;99.90;;;;;;5044694;28;20226;-72
2021/12/11 09:36:44;;;;;;;38.97;25.05;;;4.30;99.90;;;;;;5050124;28;20295;-71
2021/12/11 09:39:14;;;;;;;45.72;24.40;;;4.40;99.90;;;;;;5061436;28;20238;-74
2021/12/11 09:41:41;;;;;;;36.00;22.33;;;4.50;99.90;;;;;;5061764;28;20259;-73
2021/12/11 09:44:12;;;;;;;34.90;22.65;;;4.70;99.90;;;;;;5058005;28;20636;-73
2021/12/11 09:46:43;;;;;;;40.28;22.33;;;4.80;99.90;;;;;;5055184;28;20710;-71
2021/12/11 09:49:12;;;;;;;33.40;22.40;;;4.80;99.90;;;;;;5055463;28;20273;-72
2021/12/11 09:51:44;;;;;;;32.58;21.27;;;4.90;99.90;;;;;;5045911;28;20708;-72
2021/12/11 09:54:17;;;;;;;33.47;22.17;;;4.90;99.90;;;;;;5042318;28;20234;-74
2021/12/11 09:56:49;;;;;;;34.80;22.95;;;4.80;99.90;;;;;;5045143;28;20208;-70
2021/12/11 09:59:19;;;;;;;35.25;22.85;;;4.70;99.90;;;;;;5052107;28;20210;-71
2021/12/11 10:01:58;;;;;;;35.28;22.77;;;4.70;99.90;;;;;;5054728;28;20337;-74
2021/12/11 10:04:37;;;;;;;36.90;20.85;;;4.60;99.90;;;;;;5061734;28;20261;-74
2021/12/11 10:07:25;;;;;;;37.15;20.77;;;4.60;99.90;;;;;;5033138;28;20231;-73
2021/12/11 10:09:55;;;;;;;27.73;19.00;;;4.50;99.90;;;;;;5053538;28;20257;-74
2021/12/11 10:12:25;;;;;;;35.83;22.45;;;4.50;99.90;;;;;;5055195;28;20303;-73
2021/12/11 10:15:00;;;;;;;37.67;24.73;;;4.50;99.90;;;;;;5055038;28;20199;-74
2021/12/11 10:17:34;;;;;;;38.70;22.65;;;4.50;99.90;;;;;;5031171;28;20634;-72
2021/12/11 10:20:05;;;;;;;31.63;19.85;;;4.50;99.90;;;;;;5053667;28;20231;-73
2021/12/11 10:22:36;;;;;;;37.72;21.58;;;4.60;99.90;;;;;;5051188;28;20207;-72
2021/12/11 10:25:07;;;;;;;31.85;22.08;;;4.60;99.90;;;;;;5055413;28;20749;-72
2021/12/11 10:27:34;;;;;;;31.42;19.17;;;4.60;99.90;;;;;;5054965;28;20206;-75
2021/12/11 10:30:06;;;;;;;33.88;21.02;;;4.70;99.90;;;;;;5054313;28;20238;-73
2021/12/11 10:32:34;;;;;;;30.27;18.77;;;4.70;99.90;;;;;;5054311;28;20227;-74
2021/12/11 10:35:05;;;;;;;31.23;20.90;;;4.70;99.90;;;;;;5055292;28;20208;-74
2021/12/11 10:37:36;;;;;;;26.38;17.75;;;4.80;99.90;;;;;;5054766;28;20196;-74
2021/12/11 10:40:08;;;;;;;30.65;19.25;;;4.90;99.90;;;;;;5054106;28;20740;-73
2021/12/11 10:42:35;;;;;;;32.42;19.38;;;5.00;99.90;;;;;;5055256;28;20758;-71
2021/12/11 10:45:06;;;;;;;35.35;20.40;;;5.00;99.90;;;;;;5054485;28;20314;-73
2021/12/11 10:47:36;;;;;;;39.67;22.52;;;5.00;99.90;;;;;;5054248;28;20283;-75
2021/12/11 10:50:06;;;;;;;34.08;19.88;;;5.00;99.90;;;;;;5053769;28;20231;-72
2021/12/11 10:52:34;;;;;;;22.63;16.38;;;5.00;99.90;;;;;;5054621;28;20219;-72
2021/12/11 10:55:04;;;;;;;29.55;21.25;;;5.10;99.90;;;;;;5053044;28;20428;-75
2021/12/11 10:57:32;;;;;;;31.83;19.10;;;5.20;99.90;;;;;;5046060;28;20209;-74
2021/12/11 11:00:14;;;;;;;37.95;19.55;;;5.30;99.90;;;;;;5036067;28;20235;-74
2021/12/11 11:02:43;;;;;;;30.00;19.25;;;5.30;99.90;;;;;;5031068;28;20211;-74
2021/12/11 11:05:14;;;;;;;23.90;17.77;;;5.30;99.90;;;;;;5033670;28;20887;-73
2021/12/11 11:07:42;;;;;;;24.92;16.83;;;5.30;99.90;;;;;;5035627;28;20350;-77
2021/12/11 11:10:13;;;;;;;27.00;17.85;;;5.40;99.90;;;;;;5047280;28;20657;-74
2021/12/11 11:12:41;;;;;;;27.58;16.52;;;5.50;99.90;;;;;;5054605;28;20282;-75
2021/12/11 11:15:10;;;;;;;25.23;17.92;;;5.50;99.90;;;;;;5054168;28;20283;-74
2021/12/11 11:17:38;;;;;;;23.48;16.25;;;5.50;99.90;;;;;;5052130;28;20200;-76
2021/12/11 11:20:11;;;;;;;24.33;17.08;;;5.60;99.90;;;;;;5055423;28;20331;-74
2021/12/11 11:22:41;;;;;;;31.63;17.88;;;5.70;99.90;;;;;;5038521;28;20346;-74
2021/12/11 11:25:13;;;;;;;23.23;14.82;;;5.90;99.90;;;;;;5050276;28;20343;-74
2021/12/11 11:27:43;;;;;;;28.40;15.65;;;5.90;99.90;;;;;;5054898;28;20232;-75
2021/12/11 11:30:17;;;;;;;22.38;15.30;;;6.10;99.90;;;;;;5053803;28;20239;-73
2021/12/11 11:32:45;;;;;;;22.92;15.73;;;6.30;99.90;;;;;;5053929;28;20205;-75
2021/12/11 11:35:16;;;;;;;23.00;14.82;;;6.50;99.90;;;;;;5054553;28;20635;-76
2021/12/11 11:37:45;;;;;;;22.17;13.70;;;6.60;99.90;;;;;;5053895;28;20236;-74
2021/12/11 11:40:16;;;;;;;19.75;14.20;;;6.70;99.90;;;;;;5054426;28;20304;-76
2021/12/11 11:42:43;;;;;;;21.33;13.18;;;6.90;99.90;;;;;;5051025;28;20264;-75
2021/12/11 11:45:13;;;;;;;21.27;14.02;;;6.80;99.90;;;;;;5055034;28;20508;-76
2021/12/11 11:47:42;;;;;;;18.77;12.57;;;6.90;99.90;;;;;;5052024;28;20235;-74
2021/12/11 11:50:11;;;;;;;18.48;13.48;;;7.00;99.90;;;;;;5052941;28;20310;-75
2021/12/11 11:52:46;;;;;;;19.13;13.05;;;7.00;99.90;;;;;;5054094;28;20214;-74
2021/12/11 11:55:18;;;;;;;13.10;10.15;;;7.10;99.90;;;;;;5054409;28;20205;-75
2021/12/11 11:57:48;;;;;;;13.82;10.27;;;7.30;99.90;;;;;;5058156;28;20303;-75
2021/12/11 12:00:22;;;;;;;16.80;9.75;;;7.20;99.90;;;;;;5056380;28;20226;-74
2021/12/11 12:02:49;;;;;;;16.73;10.20;;;7.10;99.90;;;;;;5031249;28;20623;-76
2021/12/11 12:05:18;;;;;;;15.65;10.25;;;7.10;99.90;;;;;;5056507;28;20257;-74
2021/12/11 12:07:46;;;;;;;13.80;10.05;;;7.10;99.90;;;;;;5054815;28;20286;-76
2021/12/11 12:10:18;;;;;;;12.02;8.32;;;7.00;99.90;;;;;;5053734;28;20225;-75
2021/12/11 12:12:45;;;;;;;15.88;10.13;;;7.10;99.90;;;;;;5044354;28;20197;-75
2021/12/11 12:15:16;;;;;;;14.88;8.70;;;7.10;99.90;;;;;;5056264;28;20250;-75
2021/12/11 12:17:44;;;;;;;12.52;9.27;;;6.90;99.90;;;;;;5052764;28;20235;-76
2021/12/11 12:20:16;;;;;;;11.85;9.40;;;6.90;99.90;;;;;;5062537;28;20233;-74
2021/12/11 12:22:46;;;;;;;13.55;7.80;;;6.90;99.90;;;;;;5067976;28;20662;-75
2021/12/11 12:25:14;;;;;;;14.40;9.35;;;6.70;99.90;;;;;;5066760;28;20243;-74
2021/12/11 12:27:43;;;;;;;12.75;8.63;;;6.50;99.90;;;;;;5057427;28;20240;-74
2021/12/11 12:30:15;;;;;;;17.23;8.93;;;6.50;99.90;;;;;;5053568;28;20232;-74
2021/12/11 12:32:44;;;;;;;15.50;9.07;;;6.50;99.90;;;;;;5056883;28;20257;-73
2021/12/11 12:35:15;;;;;;;9.80;8.18;;;6.40;99.90;;;;;;5052986;28;20197;-73
2021/12/11 12:37:44;;;;;;;14.25;8.25;;;6.40;99.90;;;;;;5046622;28;20299;-74
2021/12/11 12:40:17;;;;;;;14.30;8.70;;;6.50;99.90;;;;;;5052017;28;20605;-73
2021/12/11 12:42:54;;;;;;;14.95;9.70;;;6.50;99.90;;;;;;5052822;28;20243;-73
2021/12/11 12:45:25;;;;;;;10.68;8.50;;;6.50;99.90;;;;;;5018727;28;20226;-74
2021/12/11 12:47:59;;;;;;;12.60;9.20;;;6.50;99.90;;;;;;5043729;28;20233;-75
2021/12/11 12:50:30;;;;;;;13.85;9.85;;;6.60;99.90;;;;;;5052011;28;20218;-74
2021/12/11 12:52:57;;;;;;;13.98;8.40;;;6.70;99.90;;;;;;5053489;28;20205;-75
2021/12/11 12:55:27;;;;;;;7.05;5.88;;;6.70;99.90;;;;;;5052688;28;20197;-76
2021/12/11 12:57:59;;;;;;;11.80;7.82;;;6.80;99.90;;;;;;5043814;28;20262;-79